Time;durP1;ratioP1;P1;durP2;ratioP2;P2;SDS_P1;SDS_P2;PMS_P1;PMS_P2;Temp;Humidity;BMP_temperature;BMP_pressure;BME280_temperature;BME280_humidity;BME280_pressure;Samples;Min_cycle;Max_cycle;Signal;HPM_P1;HPM_P2
2022/08/16 00:02:06;;;;;;;47.15;39.90;;;;;;;;;;4891282;29;20853;-84
2022/08/16 00:04:32;;;;;;;43.13;38.45;;;;;;;;;;4893792;29;20032;-84
2022/08/16 00:06:57;;;;;;;41.97;37.55;;;;;;;;;;4893570;29;20056;-84
2022/08/16 00:09:23;;;;;;;45.95;40.42;;;;;;;;;;4894166;29;20420;-84
2022/08/16 00:11:48;;;;;;;44.45;39.63;;;;;;;;;;4909756;29;20488;-84
2022/08/16 00:14:16;;;;;;;44.92;40.28;;;;;;;;;;4882468;29;20051;-84
2022/08/16 00:16:41;;;;;;;44.85;39.72;;;;;;;;;;4888470;29;20035;-84
2022/08/16 00:19:06;;;;;;;46.22;38.25;;;;;;;;;;4894882;29;20027;-84
2022/08/16 00:21:32;;;;;;;45.33;40.38;;;;;;;;;;4910604;29;20039;-84
2022/08/16 00:23:57;;;;;;;47.65;41.60;;;;;;;;;;4879839;29;20122;-84
2022/08/16 00:26:23;;;;;;;47.20;41.97;;;;;;;;;;4911339;29;20043;-84
2022/08/16 00:28:48;;;;;;;46.33;40.38;;;;;;;;;;4909721;29;20035;-84
2022/08/16 00:31:14;;;;;;;48.08;42.00;;;;;;;;;;4881109;29;20499;-84
2022/08/16 00:33:39;;;;;;;47.90;40.67;;;;;;;;;;4879510;29;20572;-83
2022/08/16 00:36:05;;;;;;;46.40;41.17;;;;;;;;;;4865224;29;20110;-83
2022/08/16 00:38:30;;;;;;;47.75;40.95;;;;;;;;;;4911231;29;20038;-84
2022/08/16 00:40:55;;;;;;;52.53;41.10;;;;;;;;;;4892706;29;20423;-84
2022/08/16 00:43:24;;;;;;;54.38;43.15;;;;;;;;;;4883491;29;20123;-84
2022/08/16 00:45:55;;;;;;;46.22;40.22;;;;;;;;;;4925332;29;20425;-84
2022/08/16 00:48:20;;;;;;;47.85;40.83;;;;;;;;;;4912495;29;20365;-84
2022/08/16 00:50:46;;;;;;;54.92;42.20;;;;;;;;;;4881281;29;20079;-84
2022/08/16 00:53:12;;;;;;;55.25;42.17;;;;;;;;;;4924790;29;20032;-84
2022/08/16 00:55:39;;;;;;;49.38;42.95;;;;;;;;;;4913747;29;20065;-84
2022/08/16 00:58:04;;;;;;;51.00;42.83;;;;;;;;;;4909321;29;20604;-84
2022/08/16 01:00:30;;;;;;;52.10;44.17;;;;;;;;;;4910991;29;20122;-83
2022/08/16 01:02:57;;;;;;;48.72;42.50;;;;;;;;;;4876229;29;20483;-84
2022/08/16 01:05:22;;;;;;;54.00;45.00;;;;;;;;;;4909853;29;20449;-84
2022/08/16 01:07:48;;;;;;;49.58;43.00;;;;;;;;;;4881448;29;20377;-84
2022/08/16 01:10:13;;;;;;;55.83;43.45;;;;;;;;;;4879031;29;20031;-84
2022/08/16 01:12:38;;;;;;;54.92;44.63;;;;;;;;;;4909610;29;20119;-84
2022/08/16 01:15:04;;;;;;;55.97;45.38;;;;;;;;;;4924779;29;20539;-83
2022/08/16 01:17:30;;;;;;;62.45;45.72;;;;;;;;;;4911131;29;20046;-83
2022/08/16 01:19:57;;;;;;;56.20;45.53;;;;;;;;;;4878880;29;20186;-84
2022/08/16 01:22:51;;;;;;;59.38;44.95;;;;;;;;;;4891401;29;20019;-84
2022/08/16 01:25:43;;;;;;;47.42;42.22;;;;;;;;;;4894923;29;20122;-84
2022/08/16 01:28:11;;;;;;;60.80;44.90;;;;;;;;;;4889267;29;20039;-83
2022/08/16 01:30:39;;;;;;;60.05;47.75;;;;;;;;;;4878200;29;20629;-84
2022/08/16 01:33:05;;;;;;;62.72;46.58;;;;;;;;;;4880705;29;20596;-83
2022/08/16 01:35:37;;;;;;;62.85;49.55;;;;;;;;;;4918912;29;20277;-84
2022/08/16 01:38:23;;;;;;;58.25;44.33;;;;;;;;;;4928114;29;20035;-85
2022/08/16 01:40:49;;;;;;;55.63;46.20;;;;;;;;;;4928296;29;20053;-84
2022/08/16 01:43:15;;;;;;;61.60;47.55;;;;;;;;;;4928651;29;20040;-84
2022/08/16 01:45:40;;;;;;;64.38;48.72;;;;;;;;;;4897265;29;20454;-84
2022/08/16 01:48:05;;;;;;;61.30;47.58;;;;;;;;;;4928101;29;20035;-84
2022/08/16 01:50:31;;;;;;;62.30;47.65;;;;;;;;;;4896656;29;20063;-84
2022/08/16 01:52:56;;;;;;;66.75;49.75;;;;;;;;;;4912982;29;20040;-82
2022/08/16 01:55:22;;;;;;;59.35;46.42;;;;;;;;;;4914205;29;20027;-83
2022/08/16 01:57:47;;;;;;;63.65;47.50;;;;;;;;;;4894567;29;20496;-83
2022/08/16 02:00:14;;;;;;;57.90;45.05;;;;;;;;;;4926183;29;20105;-83
2022/08/16 02:02:40;;;;;;;62.30;47.70;;;;;;;;;;4882735;29;20093;-83
2022/08/16 02:05:06;;;;;;;57.88;44.90;;;;;;;;;;4893063;29;20119;-83
2022/08/16 02:07:31;;;;;;;66.85;46.47;;;;;;;;;;4941097;29;20051;-84
2022/08/16 02:09:57;;;;;;;67.07;48.15;;;;;;;;;;4912011;29;20500;-83
2022/08/16 02:12:23;;;;;;;62.88;47.00;;;;;;;;;;4912202;29;20496;-83
2022/08/16 02:14:49;;;;;;;62.58;46.88;;;;;;;;;;4881450;29;20110;-83
2022/08/16 02:17:15;;;;;;;53.90;42.75;;;;;;;;;;4896295;29;20044;-83
2022/08/16 02:19:41;;;;;;;66.40;48.60;;;;;;;;;;4913572;29;20116;-83
2022/08/16 02:22:08;;;;;;;61.85;47.47;;;;;;;;;;4929600;29;20031;-84
2022/08/16 02:24:34;;;;;;;68.47;48.78;;;;;;;;;;4913017;29;21225;-84
2022/08/16 02:27:00;;;;;;;63.70;47.22;;;;;;;;;;4885942;29;20035;-85
2022/08/16 02:29:25;;;;;;;69.25;46.97;;;;;;;;;;4898191;29;20504;-84
2022/08/16 02:31:50;;;;;;;70.15;47.90;;;;;;;;;;4895859;29;20466;-85
2022/08/16 02:34:16;;;;;;;67.15;46.13;;;;;;;;;;4898284;29;20122;-84
2022/08/16 02:36:42;;;;;;;61.38;43.55;;;;;;;;;;4895573;29;21395;-84
2022/08/16 02:39:08;;;;;;;67.90;46.15;;;;;;;;;;4919495;29;20235;-84
2022/08/16 02:41:35;;;;;;;68.90;47.80;;;;;;;;;;4890848;29;20044;-83
2022/08/16 02:44:01;;;;;;;67.82;46.22;;;;;;;;;;4907560;29;20508;-83
2022/08/16 02:46:26;;;;;;;70.85;47.78;;;;;;;;;;4863936;29;20059;-83
2022/08/16 02:48:51;;;;;;;74.47;50.42;;;;;;;;;;4909628;29;20067;-83
2022/08/16 02:51:17;;;;;;;78.95;50.97;;;;;;;;;;4904782;29;20114;-83
2022/08/16 02:53:44;;;;;;;77.22;49.95;;;;;;;;;;4878532;29;20032;-84
2022/08/16 02:56:11;;;;;;;76.45;50.22;;;;;;;;;;4877003;29;20059;-83
2022/08/16 02:58:37;;;;;;;68.32;46.83;;;;;;;;;;4909782;29;20028;-83
2022/08/16 03:01:02;;;;;;;68.40;47.50;;;;;;;;;;4914969;29;20089;-83
2022/08/16 03:03:28;;;;;;;72.03;48.22;;;;;;;;;;4918370;29;20512;-83
2022/08/16 03:05:54;;;;;;;70.97;48.10;;;;;;;;;;4891147;29;20131;-83
2022/08/16 03:08:20;;;;;;;78.07;51.72;;;;;;;;;;4878719;29;20069;-83
2022/08/16 03:10:47;;;;;;;78.78;54.75;;;;;;;;;;4862307;29;20399;-83
2022/08/16 03:13:12;;;;;;;82.80;56.75;;;;;;;;;;4894480;29;20516;-82
2022/08/16 03:15:38;;;;;;;93.30;60.58;;;;;;;;;;4891861;29;20485;-83
2022/08/16 03:18:03;;;;;;;98.88;62.92;;;;;;;;;;4877946;29;20540;-82
2022/08/16 03:20:28;;;;;;;90.70;58.05;;;;;;;;;;4887215;29;20024;-82
2022/08/16 03:22:54;;;;;;;83.95;56.60;;;;;;;;;;4908658;29;20028;-83
2022/08/16 03:25:19;;;;;;;85.53;57.85;;;;;;;;;;4892478;29;20629;-82
2022/08/16 03:27:44;;;;;;;97.47;60.72;;;;;;;;;;4894018;29;20079;-83
2022/08/16 03:30:15;;;;;;;92.93;57.60;;;;;;;;;;4880907;29;20460;-83
2022/08/16 03:32:42;;;;;;;106.97;61.38;;;;;;;;;;4905978;29;20028;-83
2022/08/16 03:35:07;;;;;;;92.15;58.78;;;;;;;;;;4890226;29;20512;-83
2022/08/16 03:37:34;;;;;;;94.50;61.17;;;;;;;;;;4877911;29;20135;-83
2022/08/16 03:39:59;;;;;;;97.78;60.38;;;;;;;;;;4892536;29;20428;-83
2022/08/16 03:42:25;;;;;;;110.25;60.92;;;;;;;;;;4909772;29;20123;-83
2022/08/16 03:44:50;;;;;;;79.07;51.78;;;;;;;;;;4927996;29;20499;-84
2022/08/16 03:47:16;;;;;;;101.55;59.20;;;;;;;;;;4897759;29;20028;-84
2022/08/16 03:49:41;;;;;;;109.60;60.88;;;;;;;;;;4908980;29;20396;-84
2022/08/16 03:52:07;;;;;;;121.50;62.13;;;;;;;;;;4904186;29;20066;-83
2022/08/16 03:54:32;;;;;;;92.32;56.13;;;;;;;;;;4940932;29;20114;-83
2022/08/16 03:56:57;;;;;;;107.72;60.15;;;;;;;;;;4906928;29;20036;-83
2022/08/16 03:59:23;;;;;;;109.32;62.45;;;;;;;;;;4881147;29;20051;-82
2022/08/16 04:01:48;;;;;;;106.38;61.20;;;;;;;;;;4926042;29;20030;-83
2022/08/16 04:04:14;;;;;;;106.45;60.80;;;;;;;;;;4896208;29;20557;-83
2022/08/16 04:06:39;;;;;;;109.63;61.75;;;;;;;;;;4940553;29;20188;-83
2022/08/16 04:09:05;;;;;;;111.90;62.38;;;;;;;;;;4911952;29;20477;-84
2022/08/16 04:11:30;;;;;;;86.43;54.30;;;;;;;;;;4912381;29;20399;-83
2022/08/16 04:13:55;;;;;;;115.53;62.80;;;;;;;;;;4926951;29;20040;-83
2022/08/16 04:16:21;;;;;;;102.60;59.47;;;;;;;;;;4926599;29;20042;-83
2022/08/16 04:18:47;;;;;;;109.22;62.47;;;;;;;;;;4926271;29;20118;-83
2022/08/16 04:21:12;;;;;;;91.93;55.25;;;;;;;;;;4911742;29;20099;-83
2022/08/16 04:23:38;;;;;;;108.90;61.95;;;;;;;;;;4925275;29;20110;-83
2022/08/16 04:26:06;;;;;;;105.60;61.78;;;;;;;;;;4924570;29;20115;-83
2022/08/16 04:28:32;;;;;;;111.55;60.33;;;;;;;;;;4925370;29;20035;-83
2022/08/16 04:30:57;;;;;;;106.82;60.92;;;;;;;;;;4892374;29;20046;-83
2022/08/16 04:33:24;;;;;;;108.63;62.10;;;;;;;;;;4913209;29;20059;-84
2022/08/16 04:35:50;;;;;;;118.82;64.47;;;;;;;;;;4932645;29;20031;-79
2022/08/16 04:38:15;;;;;;;98.60;58.47;;;;;;;;;;4934682;29;20468;-80
2022/08/16 04:40:40;;;;;;;111.22;61.90;;;;;;;;;;4924796;29;20060;-80
2022/08/16 04:43:06;;;;;;;108.07;61.85;;;;;;;;;;4923912;29;20044;-80
2022/08/16 04:45:31;;;;;;;121.75;66.30;;;;;;;;;;4895899;29;20039;-80
2022/08/16 04:47:58;;;;;;;115.47;63.10;;;;;;;;;;4946683;29;20051;-80
2022/08/16 04:50:26;;;;;;;123.40;67.05;;;;;;;;;;4946403;29;20062;-80
2022/08/16 04:52:52;;;;;;;88.63;56.63;;;;;;;;;;4914412;29;20510;-80
2022/08/16 04:55:22;;;;;;;104.90;62.30;;;;;;;;;;4945808;29;20054;-78
2022/08/16 04:57:48;;;;;;;87.85;57.90;;;;;;;;;;4942470;29;20035;-78
2022/08/16 05:00:18;;;;;;;115.55;63.30;;;;;;;;;;4929336;29;20069;-78
2022/08/16 05:02:43;;;;;;;114.72;65.07;;;;;;;;;;4922680;29;20055;-78
2022/08/16 05:05:09;;;;;;;112.72;64.82;;;;;;;;;;4901282;29;20066;-78
2022/08/16 05:07:34;;;;;;;106.90;62.78;;;;;;;;;;4926569;29;20476;-78
2022/08/16 05:10:00;;;;;;;119.53;67.40;;;;;;;;;;4899235;29;20114;-78
2022/08/16 05:12:25;;;;;;;119.57;66.00;;;;;;;;;;4933647;29;20440;-78
2022/08/16 05:14:50;;;;;;;113.35;65.88;;;;;;;;;;4916856;29;20102;-78
2022/08/16 05:17:16;;;;;;;124.53;67.47;;;;;;;;;;4902173;29;20460;-78
2022/08/16 05:19:42;;;;;;;126.93;68.00;;;;;;;;;;4921704;29;20032;-78
2022/08/16 05:22:07;;;;;;;121.63;68.43;;;;;;;;;;4933121;29;20145;-78
2022/08/16 05:24:32;;;;;;;123.30;67.53;;;;;;;;;;4933884;29;20139;-78
2022/08/16 05:26:58;;;;;;;124.28;66.57;;;;;;;;;;4933582;29;20341;-78
2022/08/16 05:29:24;;;;;;;129.85;70.13;;;;;;;;;;4942002;29;20027;-78
2022/08/16 05:31:49;;;;;;;120.18;65.55;;;;;;;;;;4936940;29;20034;-78
2022/08/16 05:34:15;;;;;;;125.53;68.65;;;;;;;;;;4934135;29;20078;-78
2022/08/16 05:36:41;;;;;;;127.18;69.78;;;;;;;;;;4936690;29;20031;-78
2022/08/16 05:39:06;;;;;;;123.07;69.18;;;;;;;;;;4921315;29;20078;-78
2022/08/16 05:41:32;;;;;;;123.03;69.60;;;;;;;;;;4917718;29;20571;-78
2022/08/16 05:43:59;;;;;;;127.63;69.57;;;;;;;;;;4932813;29;20491;-78
2022/08/16 05:46:24;;;;;;;131.18;72.75;;;;;;;;;;4920793;29;20024;-78
2022/08/16 05:48:49;;;;;;;104.72;64.50;;;;;;;;;;4892899;29;20139;-79
2022/08/16 05:51:15;;;;;;;97.70;61.25;;;;;;;;;;4921729;29;20020;-76
2022/08/16 05:53:40;;;;;;;81.88;56.30;;;;;;;;;;4918773;29;20073;-77
2022/08/16 05:56:06;;;;;;;87.20;57.05;;;;;;;;;;4926019;29;20116;-78
2022/08/16 05:58:31;;;;;;;73.13;51.75;;;;;;;;;;4895887;29;20031;-78
2022/08/16 06:00:56;;;;;;;63.25;45.97;;;;;;;;;;4931162;29;20031;-78
2022/08/16 06:03:22;;;;;;;57.13;44.67;;;;;;;;;;4881182;29;20118;-77
2022/08/16 06:05:47;;;;;;;55.63;43.92;;;;;;;;;;4896491;29;20067;-77
2022/08/16 06:08:12;;;;;;;48.47;40.03;;;;;;;;;;4927248;29;20035;-78
2022/08/16 06:10:38;;;;;;;51.53;40.22;;;;;;;;;;4925717;29;20059;-77
2022/08/16 06:13:03;;;;;;;45.25;38.08;;;;;;;;;;4911357;29;20631;-79
2022/08/16 06:15:29;;;;;;;45.33;37.83;;;;;;;;;;4897491;29;20116;-77
2022/08/16 06:17:54;;;;;;;49.65;37.95;;;;;;;;;;4946658;29;20031;-77
2022/08/16 06:20:24;;;;;;;49.65;37.92;;;;;;;;;;4931900;29;20102;-77
2022/08/16 06:22:57;;;;;;;44.25;37.33;;;;;;;;;;4930710;29;20039;-77
2022/08/16 06:25:24;;;;;;;43.70;37.10;;;;;;;;;;4915281;29;20067;-77
2022/08/16 06:27:50;;;;;;;47.28;36.03;;;;;;;;;;4931153;29;20291;-77
2022/08/16 06:30:15;;;;;;;43.13;37.70;;;;;;;;;;4933026;29;20149;-77
2022/08/16 06:32:41;;;;;;;45.40;34.78;;;;;;;;;;4931020;29;20020;-77
2022/08/16 06:35:07;;;;;;;40.85;33.22;;;;;;;;;;4947438;29;20042;-77
2022/08/16 06:37:32;;;;;;;40.33;35.97;;;;;;;;;;4931248;29;20063;-78
2022/08/16 06:39:58;;;;;;;42.65;35.47;;;;;;;;;;4930502;29;20169;-77
2022/08/16 06:42:23;;;;;;;36.65;32.33;;;;;;;;;;4947309;29;20050;-77
2022/08/16 06:44:49;;;;;;;42.95;36.47;;;;;;;;;;4931326;29;20151;-77
2022/08/16 06:47:14;;;;;;;38.78;33.80;;;;;;;;;;4896114;29;20024;-79
2022/08/16 06:49:39;;;;;;;40.40;33.65;;;;;;;;;;4930398;29;20028;-78
2022/08/16 06:52:06;;;;;;;37.25;33.25;;;;;;;;;;4895908;29;20039;-78
2022/08/16 06:54:33;;;;;;;37.25;33.35;;;;;;;;;;4914955;29;20479;-79
2022/08/16 06:56:58;;;;;;;40.00;32.95;;;;;;;;;;4928423;29;20048;-79
2022/08/16 06:59:23;;;;;;;37.08;33.20;;;;;;;;;;4895186;29;20031;-80
2022/08/16 07:01:49;;;;;;;37.53;31.52;;;;;;;;;;4895189;29;20063;-80
2022/08/16 07:04:14;;;;;;;34.85;30.40;;;;;;;;;;4897519;29;20487;-81
2022/08/16 07:06:40;;;;;;;32.40;28.73;;;;;;;;;;4928970;29;20039;-81
2022/08/16 07:09:06;;;;;;;30.85;27.73;;;;;;;;;;4915263;29;20914;-81
2022/08/16 07:11:31;;;;;;;31.60;27.90;;;;;;;;;;4909110;29;20038;-81
2022/08/16 07:13:58;;;;;;;32.55;26.48;;;;;;;;;;4917598;29;20542;-81
2022/08/16 07:16:24;;;;;;;27.80;24.83;;;;;;;;;;4940451;29;20027;-80
2022/08/16 07:18:49;;;;;;;31.05;27.02;;;;;;;;;;4918475;29;20105;-81
2022/08/16 07:21:14;;;;;;;30.83;27.88;;;;;;;;;;4933045;29;20130;-81
2022/08/16 07:23:40;;;;;;;28.98;25.83;;;;;;;;;;4899059;29;20099;-81
2022/08/16 07:26:07;;;;;;;27.77;25.05;;;;;;;;;;4914260;29;20035;-81
2022/08/16 07:28:32;;;;;;;29.23;26.42;;;;;;;;;;4929857;29;20574;-82
2022/08/16 07:31:00;;;;;;;29.08;26.08;;;;;;;;;;4915108;29;20059;-81
2022/08/16 07:33:26;;;;;;;30.60;27.60;;;;;;;;;;4896559;29;20028;-81
2022/08/16 07:35:51;;;;;;;27.50;24.55;;;;;;;;;;4911160;29;20039;-81
2022/08/16 07:38:17;;;;;;;31.23;25.42;;;;;;;;;;4930893;29;20040;-80
2022/08/16 07:40:42;;;;;;;26.02;23.40;;;;;;;;;;4931069;29;20024;-81
2022/08/16 07:43:07;;;;;;;27.92;25.05;;;;;;;;;;4914398;29;20083;-81
2022/08/16 07:45:33;;;;;;;27.63;24.83;;;;;;;;;;4915478;29;20091;-81
2022/08/16 07:47:58;;;;;;;24.80;22.23;;;;;;;;;;4882875;29;20019;-81
2022/08/16 07:50:24;;;;;;;25.50;22.73;;;;;;;;;;4899932;29;20046;-80
2022/08/16 07:52:49;;;;;;;24.83;21.48;;;;;;;;;;4917311;29;20083;-80
2022/08/16 07:55:15;;;;;;;22.08;19.98;;;;;;;;;;4896305;29;20491;-81
2022/08/16 07:57:41;;;;;;;23.50;21.20;;;;;;;;;;4926396;29;20090;-84
2022/08/16 08:00:07;;;;;;;23.65;21.20;;;;;;;;;;4910973;29;20499;-83
2022/08/16 08:02:32;;;;;;;24.08;20.50;;;;;;;;;;4880169;29;20034;-84
2022/08/16 08:04:58;;;;;;;21.33;19.08;;;;;;;;;;4930142;29;20423;-83
2022/08/16 08:07:23;;;;;;;20.00;17.70;;;;;;;;;;4931001;29;20039;-84
2022/08/16 08:09:49;;;;;;;21.98;19.17;;;;;;;;;;4914046;29;20089;-83
2022/08/16 08:12:15;;;;;;;21.70;18.23;;;;;;;;;;4930432;29;20031;-84
2022/08/16 08:14:40;;;;;;;18.42;16.45;;;;;;;;;;4946531;29;20037;-83
2022/08/16 08:17:06;;;;;;;19.33;15.38;;;;;;;;;;4929233;29;20515;-84
2022/08/16 08:19:32;;;;;;;22.98;16.08;;;;;;;;;;4882399;29;20077;-82
2022/08/16 08:21:57;;;;;;;16.05;13.65;;;;;;;;;;4914534;29;20079;-84
2022/08/16 08:24:23;;;;;;;15.63;14.07;;;;;;;;;;4930567;29;20031;-84
2022/08/16 08:26:48;;;;;;;16.30;14.25;;;;;;;;;;4898890;29;20496;-83
2022/08/16 08:29:14;;;;;;;17.60;13.57;;;;;;;;;;4914682;29;20047;-82
2022/08/16 08:31:41;;;;;;;14.93;13.43;;;;;;;;;;4929917;29;20059;-82
2022/08/16 08:34:06;;;;;;;15.20;13.18;;;;;;;;;;4914640;29;20913;-80
2022/08/16 08:36:32;;;;;;;15.05;13.60;;;;;;;;;;4938204;29;20063;-80
2022/08/16 08:38:57;;;;;;;16.05;13.50;;;;;;;;;;4897977;29;20107;-81
2022/08/16 08:41:24;;;;;;;15.95;13.40;;;;;;;;;;4918019;29;20052;-82
2022/08/16 08:43:50;;;;;;;16.23;11.88;;;;;;;;;;4918692;29;20138;-82
2022/08/16 08:46:15;;;;;;;14.90;11.13;;;;;;;;;;4934552;29;20067;-83
2022/08/16 08:48:40;;;;;;;16.83;11.40;;;;;;;;;;4919209;29;20039;-82
2022/08/16 08:51:07;;;;;;;14.20;11.32;;;;;;;;;;4918512;29;20059;-82
2022/08/16 08:53:32;;;;;;;18.13;10.57;;;;;;;;;;4910222;29;20024;-82
2022/08/16 08:55:58;;;;;;;16.55;11.85;;;;;;;;;;4900079;29;20182;-83
2022/08/16 08:58:23;;;;;;;12.43;9.40;;;;;;;;;;4885441;29;20111;-83
2022/08/16 09:00:49;;;;;;;11.35;10.30;;;;;;;;;;4923472;29;20058;-81
2022/08/16 09:03:15;;;;;;;20.98;11.60;;;;;;;;;;4913848;29;20031;-82
2022/08/16 09:05:40;;;;;;;12.07;10.88;;;;;;;;;;4931619;29;20479;-81
2022/08/16 09:08:06;;;;;;;17.17;10.30;;;;;;;;;;4924858;29;20031;-82
2022/08/16 09:10:31;;;;;;;16.08;10.65;;;;;;;;;;4899784;29;20507;-82
2022/08/16 09:13:00;;;;;;;16.63;11.95;;;;;;;;;;4917894;29;20565;-81
2022/08/16 09:15:25;;;;;;;16.58;10.45;;;;;;;;;;4885582;29;20040;-82
2022/08/16 09:17:54;;;;;;;18.10;11.55;;;;;;;;;;4901743;29;20028;-82
2022/08/16 09:20:20;;;;;;;11.82;10.50;;;;;;;;;;4918014;29;20059;-83
2022/08/16 09:22:45;;;;;;;14.63;11.85;;;;;;;;;;4917492;29;20055;-82
2022/08/16 09:25:12;;;;;;;13.90;10.23;;;;;;;;;;4917181;29;20414;-82
2022/08/16 09:27:39;;;;;;;14.52;11.23;;;;;;;;;;4934455;29;20035;-83
2022/08/16 09:30:05;;;;;;;13.88;10.90;;;;;;;;;;4914421;29;20111;-83
2022/08/16 09:32:30;;;;;;;12.13;10.93;;;;;;;;;;4934099;29;20031;-82
2022/08/16 09:34:55;;;;;;;13.25;10.00;;;;;;;;;;4932990;29;20103;-82
2022/08/16 09:37:21;;;;;;;13.00;11.52;;;;;;;;;;4934783;29;20039;-82
2022/08/16 09:39:46;;;;;;;12.07;10.57;;;;;;;;;;4886181;29;20114;-82
2022/08/16 09:42:14;;;;;;;11.95;10.40;;;;;;;;;;4913073;29;20138;-83
2022/08/16 09:44:40;;;;;;;12.55;10.20;;;;;;;;;;4889349;29;20094;-83
2022/08/16 09:47:05;;;;;;;14.52;10.43;;;;;;;;;;4903355;29;20043;-84
2022/08/16 09:49:31;;;;;;;13.30;8.05;;;;;;;;;;4902786;29;20036;-83
2022/08/16 09:51:56;;;;;;;9.20;7.47;;;;;;;;;;4886518;29;20038;-83
2022/08/16 09:54:23;;;;;;;7.65;6.40;;;;;;;;;;4904481;29;20410;-83
2022/08/16 09:56:48;;;;;;;10.48;6.40;;;;;;;;;;4923995;29;20035;-83
2022/08/16 09:59:14;;;;;;;8.60;6.32;;;;;;;;;;4944282;29;20035;-83
2022/08/16 10:01:41;;;;;;;10.15;6.18;;;;;;;;;;4932653;29;20032;-83
2022/08/16 10:04:07;;;;;;;8.10;5.47;;;;;;;;;;4933191;29;20435;-83
2022/08/16 10:06:32;;;;;;;8.27;5.53;;;;;;;;;;4901462;29;20030;-83
2022/08/16 10:08:57;;;;;;;10.32;5.45;;;;;;;;;;4932627;29;20031;-82
2022/08/16 10:14:07;;;;;;;9.48;4.60;;;;;;;;;;4919723;29;20206;-82
2022/08/16 10:16:32;;;;;;;8.57;5.18;;;;;;;;;;4916962;29;20482;-82
2022/08/16 10:18:58;;;;;;;10.15;5.60;;;;;;;;;;4932234;29;20066;-82
2022/08/16 10:21:23;;;;;;;10.68;5.25;;;;;;;;;;4932917;29;20058;-82
2022/08/16 10:23:50;;;;;;;11.75;4.97;;;;;;;;;;4904624;29;20082;-82
2022/08/16 10:26:16;;;;;;;11.75;5.30;;;;;;;;;;4902611;29;20042;-82
2022/08/16 10:28:41;;;;;;;8.13;4.22;;;;;;;;;;4931242;29;20119;-82
2022/08/16 10:31:07;;;;;;;5.70;4.55;;;;;;;;;;4900380;29;20059;-81
2022/08/16 10:33:33;;;;;;;9.63;4.05;;;;;;;;;;4916259;29;20066;-81
2022/08/16 10:35:58;;;;;;;7.00;3.65;;;;;;;;;;4900291;29;20072;-83
2022/08/16 10:38:23;;;;;;;7.40;3.78;;;;;;;;;;4898795;29;20110;-83
2022/08/16 10:40:49;;;;;;;7.90;3.67;;;;;;;;;;4900638;29;20067;-83
2022/08/16 10:43:14;;;;;;;5.93;3.30;;;;;;;;;;4930735;29;20550;-83
2022/08/16 10:45:40;;;;;;;7.90;3.20;;;;;;;;;;4935817;29;20102;-82
2022/08/16 10:48:06;;;;;;;7.57;3.05;;;;;;;;;;4937495;29;20463;-83
2022/08/16 10:50:31;;;;;;;5.88;3.05;;;;;;;;;;4916543;29;20028;-82
2022/08/16 10:52:57;;;;;;;7.05;3.30;;;;;;;;;;4914603;29;20037;-83
2022/08/16 10:55:23;;;;;;;3.95;2.97;;;;;;;;;;4931107;29;20535;-83
2022/08/16 10:57:48;;;;;;;7.15;3.42;;;;;;;;;;4911518;29;20032;-82
2022/08/16 11:00:16;;;;;;;6.18;2.70;;;;;;;;;;4913420;29;20059;-82
2022/08/16 11:02:42;;;;;;;7.63;3.53;;;;;;;;;;4894642;29;20035;-83
2022/08/16 11:05:10;;;;;;;4.60;3.25;;;;;;;;;;4900540;29;20039;-83
2022/08/16 11:07:36;;;;;;;4.93;2.30;;;;;;;;;;4901651;29;20567;-82
2022/08/16 11:10:02;;;;;;;6.30;3.28;;;;;;;;;;4883985;29;20110;-83
2022/08/16 11:12:27;;;;;;;6.95;2.90;;;;;;;;;;4899272;29;20031;-83
2022/08/16 11:14:53;;;;;;;9.18;2.83;;;;;;;;;;4900100;29;20039;-83
2022/08/16 11:17:18;;;;;;;3.70;2.30;;;;;;;;;;4915169;29;20114;-82
2022/08/16 11:19:44;;;;;;;5.22;2.65;;;;;;;;;;4868482;29;20023;-83
2022/08/16 11:22:10;;;;;;;5.40;2.70;;;;;;;;;;4884448;29;20178;-81
2022/08/16 11:24:39;;;;;;;4.65;2.63;;;;;;;;;;4930646;29;20038;-82
2022/08/16 11:27:07;;;;;;;8.20;2.80;;;;;;;;;;4885148;29;20059;-82
2022/08/16 11:29:33;;;;;;;5.47;2.70;;;;;;;;;;4924559;29;20093;-83
2022/08/16 11:31:58;;;;;;;14.57;3.30;;;;;;;;;;4937048;29;20070;-82
2022/08/16 11:34:24;;;;;;;5.22;3.00;;;;;;;;;;4914860;29;20027;-83
2022/08/16 11:36:51;;;;;;;6.55;2.80;;;;;;;;;;4946008;29;20066;-83
2022/08/16 11:39:16;;;;;;;5.53;2.97;;;;;;;;;;4930974;29;20038;-82
2022/08/16 11:41:42;;;;;;;7.07;3.40;;;;;;;;;;4913890;29;20047;-84
2022/08/16 11:44:07;;;;;;;8.30;3.20;;;;;;;;;;4930709;29;20074;-84
2022/08/16 11:46:34;;;;;;;5.80;3.30;;;;;;;;;;4914072;29;20428;-83
2022/08/16 11:49:03;;;;;;;5.72;3.40;;;;;;;;;;4926928;29;20118;-84
2022/08/16 11:51:29;;;;;;;4.97;3.45;;;;;;;;;;4915184;29;20083;-83
2022/08/16 11:53:54;;;;;;;6.82;3.55;;;;;;;;;;4930788;29;20480;-83
2022/08/16 11:56:20;;;;;;;3.95;2.78;;;;;;;;;;4930261;29;20035;-84
2022/08/16 11:58:45;;;;;;;10.32;3.80;;;;;;;;;;4914851;29;20111;-83
2022/08/16 12:01:11;;;;;;;6.72;3.03;;;;;;;;;;4918014;29;20039;-83
2022/08/16 12:03:37;;;;;;;7.60;3.30;;;;;;;;;;4916188;29;20032;-82
2022/08/16 12:06:14;;;;;;;8.60;3.90;;;;;;;;;;4915226;29;20052;-83
2022/08/16 12:08:40;;;;;;;9.52;4.15;;;;;;;;;;4899079;29;20087;-83
2022/08/16 12:11:05;;;;;;;5.28;3.17;;;;;;;;;;4929524;29;20605;-83
2022/08/16 12:13:32;;;;;;;7.32;3.58;;;;;;;;;;4922255;29;20023;-84
2022/08/16 12:15:57;;;;;;;5.93;3.13;;;;;;;;;;4913741;29;20032;-84
2022/08/16 12:18:23;;;;;;;6.25;3.30;;;;;;;;;;4946885;29;20107;-84
2022/08/16 12:20:48;;;;;;;6.75;3.72;;;;;;;;;;4914970;29;20087;-85
2022/08/16 12:23:14;;;;;;;5.53;3.17;;;;;;;;;;4915379;29;20115;-84
2022/08/16 12:25:39;;;;;;;11.05;3.42;;;;;;;;;;4917814;29;20078;-84
2022/08/16 12:28:05;;;;;;;6.18;3.28;;;;;;;;;;4914727;29;20035;-83
2022/08/16 12:30:32;;;;;;;6.97;4.82;;;;;;;;;;4932373;29;20038;-83
2022/08/16 12:32:58;;;;;;;9.27;4.47;;;;;;;;;;4926318;29;20023;-83
2022/08/16 12:35:24;;;;;;;6.18;4.72;;;;;;;;;;4949831;28;20081;-83
2022/08/16 12:37:50;;;;;;;11.32;4.55;;;;;;;;;;4897979;29;20046;-83
2022/08/16 12:40:19;;;;;;;7.40;4.97;;;;;;;;;;4899548;29;20035;-83
2022/08/16 12:42:44;;;;;;;8.35;4.88;;;;;;;;;;4948047;28;20078;-82
2022/08/16 12:45:11;;;;;;;8.65;4.95;;;;;;;;;;4916706;29;20111;-83
2022/08/16 12:50:21;;;;;;;11.45;4.30;;;;;;;;;;4921988;29;20648;-83
2022/08/16 12:52:46;;;;;;;9.75;4.25;;;;;;;;;;4939904;29;20019;-84
2022/08/16 12:55:11;;;;;;;13.85;4.82;;;;;;;;;;4938811;29;20518;-84
2022/08/16 12:57:37;;;;;;;9.80;4.75;;;;;;;;;;4910807;29;20076;-84
2022/08/16 13:00:15;;;;;;;10.05;4.85;;;;;;;;;;4901992;29;20038;-84
2022/08/16 13:02:41;;;;;;;7.45;4.80;;;;;;;;;;4914403;29;20052;-83
2022/08/16 13:05:07;;;;;;;12.00;4.75;;;;;;;;;;4945262;28;20035;-84
2022/08/16 13:07:32;;;;;;;8.40;4.47;;;;;;;;;;4936160;29;20035;-82
2022/08/16 13:10:07;;;;;;;8.90;3.50;;;;;;;;;;4902376;29;20093;-82
2022/08/16 13:12:37;;;;;;;6.55;4.05;;;;;;;;;;4903947;29;20360;-83
2022/08/16 13:15:08;;;;;;;17.55;4.88;;;;;;;;;;4915234;29;20035;-82
2022/08/16 13:17:33;;;;;;;7.07;3.65;;;;;;;;;;4901070;29;20484;-82
2022/08/16 13:19:59;;;;;;;5.07;3.75;;;;;;;;;;4883111;29;20070;-82
2022/08/16 13:22:25;;;;;;;4.85;3.85;;;;;;;;;;4899618;29;20122;-83
2022/08/16 13:24:52;;;;;;;8.98;4.25;;;;;;;;;;4914605;29;20110;-82
2022/08/16 13:27:17;;;;;;;4.82;3.65;;;;;;;;;;4914338;29;20020;-82
2022/08/16 13:29:42;;;;;;;7.32;4.18;;;;;;;;;;4917785;29;20086;-82
2022/08/16 13:32:09;;;;;;;6.35;3.97;;;;;;;;;;4932353;29;20035;-82
2022/08/16 13:34:35;;;;;;;12.85;4.57;;;;;;;;;;4937097;29;20106;-81
2022/08/16 13:37:00;;;;;;;7.88;3.75;;;;;;;;;;4921284;29;20150;-81
2022/08/16 13:39:25;;;;;;;6.72;3.90;;;;;;;;;;4926845;29;20110;-81
2022/08/16 13:41:51;;;;;;;6.78;4.10;;;;;;;;;;4933004;29;20050;-81
2022/08/16 13:44:17;;;;;;;8.90;4.80;;;;;;;;;;4933796;29;20485;-82
2022/08/16 13:46:44;;;;;;;8.27;4.43;;;;;;;;;;4934481;29;20138;-82
2022/08/16 13:49:10;;;;;;;9.70;4.30;;;;;;;;;;4922251;29;20027;-82
2022/08/16 13:51:35;;;;;;;10.20;4.72;;;;;;;;;;4902126;29;20468;-82
2022/08/16 13:54:04;;;;;;;7.30;4.63;;;;;;;;;;4901235;29;20093;-81
2022/08/16 13:56:33;;;;;;;9.23;4.05;;;;;;;;;;4918786;29;20535;-82
2022/08/16 13:58:59;;;;;;;10.45;4.88;;;;;;;;;;4917513;29;20066;-82
2022/08/16 14:01:24;;;;;;;11.48;4.72;;;;;;;;;;4933366;29;20062;-82
2022/08/16 14:03:49;;;;;;;8.73;4.65;;;;;;;;;;4902495;29;20082;-81
2022/08/16 14:06:15;;;;;;;10.85;4.90;;;;;;;;;;4933808;29;20059;-82
2022/08/16 14:08:42;;;;;;;8.32;4.30;;;;;;;;;;4917612;29;20035;-82
2022/08/16 14:11:09;;;;;;;13.00;5.63;;;;;;;;;;4944711;29;20039;-82
2022/08/16 14:13:34;;;;;;;8.00;4.70;;;;;;;;;;4918125;29;20020;-82
2022/08/16 14:16:00;;;;;;;9.30;5.25;;;;;;;;;;4912783;29;20051;-82
2022/08/16 14:18:26;;;;;;;9.50;4.90;;;;;;;;;;4902694;29;20087;-82
2022/08/16 14:20:51;;;;;;;14.52;5.95;;;;;;;;;;4901323;29;20412;-82
2022/08/16 14:23:17;;;;;;;7.32;4.97;;;;;;;;;;4932874;29;20167;-82